Time;durP1;ratioP1;P1;durP2;ratioP2;P2;SDS_P1;SDS_P2;PMS_P1;PMS_P2;Temp;Humidity;BMP_temperature;BMP_pressure;BME280_temperature;BME280_humidity;BME280_pressure;Samples;Min_cycle;Max_cycle;Signal;HPM_P1;HPM_P2
2023/05/14 00:00:35;;;;;;;12.23;10.77;;;16.20;99.90;;;;;;5044640;28;20231;-60
2023/05/14 00:03:02;;;;;;;11.10;9.90;;;16.10;99.90;;;;;;5047525;28;20655;-60
2023/05/14 00:05:29;;;;;;;11.50;10.30;;;16.00;99.90;;;;;;5049209;28;20215;-60
2023/05/14 00:07:56;;;;;;;11.37;10.13;;;15.70;99.90;;;;;;5049530;28;20256;-61
2023/05/14 00:10:23;;;;;;;12.27;10.00;;;15.60;99.90;;;;;;5048140;28;20273;-60
2023/05/14 00:12:50;;;;;;;10.57;9.47;;;15.40;99.90;;;;;;5047029;28;20207;-60
2023/05/14 00:15:18;;;;;;;14.67;10.80;;;15.40;99.90;;;;;;5041147;28;20645;-60
2023/05/14 00:17:45;;;;;;;14.13;10.77;;;15.30;99.90;;;;;;5045445;28;20256;-60
2023/05/14 00:20:12;;;;;;;11.90;10.40;;;15.20;99.90;;;;;;5048709;28;20229;-60
2023/05/14 00:22:39;;;;;;;12.57;10.67;;;15.20;99.90;;;;;;5047483;28;20222;-61
2023/05/14 00:25:07;;;;;;;11.80;10.53;;;15.20;99.90;;;;;;5044159;28;20273;-61
2023/05/14 00:27:35;;;;;;;12.17;10.20;;;15.20;99.90;;;;;;5038986;28;20230;-60
2023/05/14 00:30:03;;;;;;;13.57;11.37;;;15.10;99.90;;;;;;5039261;28;20214;-60
2023/05/14 00:32:30;;;;;;;14.97;10.87;;;15.00;99.90;;;;;;5029401;28;20314;-60
2023/05/14 00:34:57;;;;;;;15.90;10.67;;;15.00;99.90;;;;;;5026009;28;20210;-61
2023/05/14 00:37:24;;;;;;;12.93;10.80;;;15.00;99.90;;;;;;5028121;28;20670;-61
2023/05/14 00:39:51;;;;;;;12.80;11.10;;;15.00;99.90;;;;;;5042308;28;20232;-60
2023/05/14 00:42:18;;;;;;;14.97;11.33;;;14.90;99.90;;;;;;5038864;28;20749;-60
2023/05/14 00:44:44;;;;;;;13.90;10.30;;;14.70;99.90;;;;;;5029494;28;20332;-60
2023/05/14 00:47:12;;;;;;;12.67;10.43;;;14.90;99.90;;;;;;5027851;28;20554;-60
2023/05/14 00:49:40;;;;;;;13.10;10.57;;;14.80;99.90;;;;;;5045545;28;20661;-60
2023/05/14 00:52:07;;;;;;;14.87;11.50;;;15.00;99.90;;;;;;5045508;28;20200;-60
2023/05/14 00:54:35;;;;;;;13.27;11.27;;;14.90;99.90;;;;;;5041952;28;20202;-60
2023/05/14 00:57:03;;;;;;;13.97;11.33;;;14.90;99.90;;;;;;5034279;28;20212;-60
2023/05/14 00:59:30;;;;;;;14.70;11.57;;;14.70;99.90;;;;;;5037588;28;20208;-60
2023/05/14 01:01:57;;;;;;;16.63;12.43;;;14.80;99.90;;;;;;5035723;28;20234;-60
2023/05/14 01:04:24;;;;;;;15.20;12.30;;;14.70;99.90;;;;;;5036797;28;20207;-60
2023/05/14 01:07:09;;;;;;;15.37;12.07;;;14.80;99.90;;;;;;5033728;28;20208;-60
2023/05/14 01:10:04;;;;;;;19.17;13.27;;;14.60;99.90;;;;;;5040816;28;20202;-60
2023/05/14 01:12:46;;;;;;;13.60;12.20;;;14.50;99.90;;;;;;5028956;28;20204;-60
2023/05/14 01:15:20;;;;;;;13.53;11.43;;;14.40;99.90;;;;;;5045604;28;20246;-60
2023/05/14 01:17:57;;;;;;;16.50;13.37;;;14.50;99.90;;;;;;5046531;28;20211;-61
2023/05/14 01:20:26;;;;;;;13.67;12.27;;;14.40;99.90;;;;;;5048666;28;20590;-60
2023/05/14 01:22:52;;;;;;;14.17;12.00;;;14.40;99.90;;;;;;5039505;28;20711;-60
2023/05/14 01:25:19;;;;;;;15.00;12.67;;;14.30;99.90;;;;;;5046431;28;20210;-61
2023/05/14 01:27:58;;;;;;;12.87;11.63;;;14.40;99.90;;;;;;5049020;28;20311;-60
2023/05/14 01:30:39;;;;;;;15.93;12.47;;;14.40;99.90;;;;;;5043593;28;20614;-60
2023/05/14 01:33:10;;;;;;;17.47;13.00;;;14.30;99.90;;;;;;5048525;28;20716;-60
2023/05/14 01:35:37;;;;;;;16.83;12.10;;;14.20;99.90;;;;;;5046018;28;20196;-60
2023/05/14 01:38:07;;;;;;;15.67;12.73;;;14.20;99.90;;;;;;5047583;28;20220;-60
2023/05/14 01:40:35;;;;;;;18.13;13.00;;;14.30;99.90;;;;;;5045865;28;20288;-63
2023/05/14 01:43:03;;;;;;;15.03;12.53;;;14.30;99.90;;;;;;5049162;28;20217;-61
2023/05/14 01:45:33;;;;;;;15.23;12.47;;;14.40;99.90;;;;;;5046483;28;20228;-60
2023/05/14 01:48:00;;;;;;;14.73;12.67;;;14.00;99.90;;;;;;5045351;28;20210;-65
2023/05/14 01:50:27;;;;;;;16.33;13.33;;;14.10;99.90;;;;;;5047140;28;20201;-60
2023/05/14 01:52:55;;;;;;;14.93;12.00;;;14.30;99.90;;;;;;5045722;28;20661;-60
2023/05/14 01:55:23;;;;;;;15.03;12.90;;;14.50;99.90;;;;;;5043136;28;20198;-60
2023/05/14 01:57:51;;;;;;;17.17;12.67;;;14.40;99.90;;;;;;5046128;28;20205;-60
2023/05/14 02:00:19;;;;;;;15.37;13.33;;;14.40;99.90;;;;;;5044415;28;20572;-60
2023/05/14 02:02:46;;;;;;;18.20;13.93;;;14.20;99.90;;;;;;5042404;28;20738;-60
2023/05/14 02:05:13;;;;;;;16.37;13.20;;;14.10;99.90;;;;;;5041802;28;20205;-60
2023/05/14 02:07:40;;;;;;;14.80;12.83;;;14.00;99.90;;;;;;5040271;28;20242;-60
2023/05/14 02:10:07;;;;;;;16.47;13.70;;;14.00;99.90;;;;;;5035912;28;20292;-60
2023/05/14 02:12:34;;;;;;;14.83;13.17;;;14.00;99.90;;;;;;5042269;28;20668;-60
2023/05/14 02:15:02;;;;;;;17.33;12.63;;;14.00;99.90;;;;;;5044248;28;20629;-60
2023/05/14 02:17:29;;;;;;;16.97;13.30;;;14.00;99.90;;;;;;5046007;28;20620;-60
2023/05/14 02:19:56;;;;;;;15.07;13.10;;;13.90;99.90;;;;;;5043052;28;20231;-60
2023/05/14 02:22:23;;;;;;;14.77;12.47;;;13.80;99.90;;;;;;5043021;28;20215;-60
2023/05/14 02:24:50;;;;;;;17.23;13.97;;;13.90;99.90;;;;;;5047523;28;20233;-60
2023/05/14 02:27:17;;;;;;;15.30;13.70;;;13.90;99.90;;;;;;5042842;28;20209;-60
2023/05/14 02:29:44;;;;;;;17.13;13.00;;;13.90;99.90;;;;;;5044689;28;20301;-60
2023/05/14 02:32:10;;;;;;;16.70;13.83;;;13.90;99.90;;;;;;5045085;28;20653;-60
2023/05/14 02:34:37;;;;;;;16.43;13.40;;;13.90;99.90;;;;;;5046837;28;20212;-62
2023/05/14 02:37:04;;;;;;;19.77;13.73;;;13.80;99.90;;;;;;5048603;28;20296;-60
2023/05/14 02:39:31;;;;;;;15.70;13.40;;;13.80;99.90;;;;;;5047399;28;20288;-60
2023/05/14 02:41:58;;;;;;;19.77;14.77;;;13.70;99.90;;;;;;5039160;28;20722;-60
2023/05/14 02:44:25;;;;;;;19.13;15.33;;;13.60;99.90;;;;;;5047107;28;20214;-60
2023/05/14 02:46:52;;;;;;;19.27;14.67;;;13.60;99.90;;;;;;5048485;28;20247;-60
2023/05/14 02:49:19;;;;;;;18.27;14.37;;;13.50;99.90;;;;;;5049803;28;20645;-60
2023/05/14 02:51:46;;;;;;;15.83;13.10;;;13.50;99.90;;;;;;5047691;28;20286;-60
2023/05/14 02:54:15;;;;;;;17.90;13.47;;;13.50;99.90;;;;;;5046047;28;20264;-60
2023/05/14 02:56:42;;;;;;;23.90;14.20;;;13.40;99.90;;;;;;5046123;28;20208;-60
2023/05/14 02:59:08;;;;;;;17.27;13.10;;;13.40;99.90;;;;;;5046954;28;20618;-60
2023/05/14 03:01:36;;;;;;;18.63;14.63;;;13.60;99.90;;;;;;5049791;28;20616;-60
2023/05/14 03:04:03;;;;;;;16.30;13.73;;;13.60;99.90;;;;;;5045850;28;20228;-60
2023/05/14 03:06:30;;;;;;;16.67;12.57;;;13.50;99.90;;;;;;5043843;28;20254;-60
2023/05/14 03:08:57;;;;;;;21.27;14.27;;;13.60;99.90;;;;;;5047036;28;20241;-60
2023/05/14 03:11:24;;;;;;;19.87;13.10;;;13.60;99.90;;;;;;5040115;28;20537;-60
2023/05/14 03:13:51;;;;;;;18.97;13.70;;;13.60;99.90;;;;;;5033662;28;20206;-60
2023/05/14 03:16:18;;;;;;;15.83;13.03;;;13.70;99.90;;;;;;5046406;28;20634;-62
2023/05/14 03:18:45;;;;;;;19.90;14.10;;;13.50;99.90;;;;;;5047089;28;20305;-61
2023/05/14 03:21:12;;;;;;;16.37;13.27;;;13.60;99.90;;;;;;5040348;28;20208;-60
2023/05/14 03:23:39;;;;;;;18.60;13.43;;;13.60;99.90;;;;;;5045926;28;20228;-60
2023/05/14 03:26:06;;;;;;;16.87;12.77;;;13.50;99.90;;;;;;5047642;28;20236;-60
2023/05/14 03:28:32;;;;;;;15.33;12.33;;;13.30;99.90;;;;;;5047875;28;20200;-60
2023/05/14 03:30:59;;;;;;;19.23;13.60;;;13.30;99.90;;;;;;5047108;28;20197;-61
2023/05/14 03:33:27;;;;;;;17.27;13.20;;;13.40;99.90;;;;;;5047189;28;21147;-61
2023/05/14 03:35:53;;;;;;;20.13;14.43;;;13.40;99.90;;;;;;5047372;28;20290;-60
2023/05/14 03:38:20;;;;;;;15.70;12.67;;;13.30;99.90;;;;;;5048613;28;20582;-60
2023/05/14 03:40:47;;;;;;;15.90;12.60;;;13.40;99.90;;;;;;5044761;28;20218;-60
2023/05/14 03:43:15;;;;;;;16.87;13.10;;;13.40;99.90;;;;;;5043799;28;20774;-60
2023/05/14 03:45:42;;;;;;;16.30;12.87;;;13.50;99.90;;;;;;5041007;28;20197;-60
2023/05/14 03:48:09;;;;;;;16.07;12.63;;;13.50;99.90;;;;;;5044705;28;20201;-60
2023/05/14 03:50:36;;;;;;;16.77;12.90;;;13.60;99.90;;;;;;5049224;28;20283;-60
2023/05/14 03:53:03;;;;;;;16.27;13.27;;;13.40;99.90;;;;;;5041429;28;20231;-60
2023/05/14 03:55:30;;;;;;;17.23;12.77;;;13.50;99.90;;;;;;5042528;28;20236;-60
2023/05/14 03:57:56;;;;;;;21.93;13.97;;;13.40;99.90;;;;;;5035384;28;20311;-60
2023/05/14 04:00:23;;;;;;;16.83;13.53;;;13.40;99.90;;;;;;5038972;28;20216;-60
2023/05/14 04:02:50;;;;;;;17.17;13.13;;;13.40;99.90;;;;;;5032422;28;21014;-60
2023/05/14 04:05:17;;;;;;;17.67;12.80;;;13.50;99.90;;;;;;5034532;28;20292;-62
2023/05/14 04:07:45;;;;;;;15.77;12.53;;;13.20;99.90;;;;;;5037138;28;20795;-65
2023/05/14 04:10:12;;;;;;;15.67;12.60;;;13.10;99.90;;;;;;5042914;28;20663;-60
2023/05/14 04:12:39;;;;;;;20.20;13.87;;;13.20;99.90;;;;;;5036071;28;21010;-60
2023/05/14 04:15:06;;;;;;;16.43;12.90;;;13.30;99.90;;;;;;5036015;28;20208;-60
2023/05/14 04:17:33;;;;;;;17.90;13.33;;;13.20;99.90;;;;;;5036037;28;20223;-60
2023/05/14 04:20:01;;;;;;;17.23;12.20;;;13.20;99.90;;;;;;5032715;28;20200;-60
2023/05/14 04:22:27;;;;;;;17.17;11.90;;;13.20;99.90;;;;;;5033560;28;20217;-60
2023/05/14 04:24:54;;;;;;;18.30;13.43;;;13.20;99.90;;;;;;5033612;28;20311;-62
2023/05/14 04:27:21;;;;;;;16.20;12.30;;;13.00;99.90;;;;;;5039417;28;20203;-62
2023/05/14 04:29:49;;;;;;;15.13;12.33;;;13.10;99.90;;;;;;5038152;28;20257;-62
2023/05/14 04:32:16;;;;;;;19.07;12.43;;;12.90;99.90;;;;;;5039745;28;20275;-62
2023/05/14 04:34:43;;;;;;;14.17;11.50;;;13.00;99.90;;;;;;5041502;28;20286;-62
2023/05/14 04:37:10;;;;;;;17.73;13.50;;;13.10;99.90;;;;;;5038407;28;20205;-62
2023/05/14 04:39:37;;;;;;;15.83;11.73;;;13.10;99.90;;;;;;5039292;28;20203;-62
2023/05/14 04:42:05;;;;;;;16.73;12.10;;;12.90;99.90;;;;;;5035385;28;20223;-62
2023/05/14 04:44:34;;;;;;;15.80;12.23;;;12.80;99.90;;;;;;5035574;28;20246;-62
2023/05/14 04:47:01;;;;;;;15.80;12.27;;;12.90;99.90;;;;;;5036197;28;20209;-62
2023/05/14 04:49:29;;;;;;;18.80;12.53;;;12.90;99.90;;;;;;5036386;28;20210;-62
2023/05/14 04:51:56;;;;;;;17.67;12.47;;;13.00;99.90;;;;;;5032223;28;20298;-63
2023/05/14 04:54:23;;;;;;;15.70;11.83;;;12.80;99.90;;;;;;5038492;28;20290;-63
2023/05/14 04:56:50;;;;;;;15.00;12.10;;;12.80;99.90;;;;;;5038478;28;20259;-62
2023/05/14 04:59:17;;;;;;;15.23;11.67;;;12.70;99.90;;;;;;5039339;28;20204;-62
2023/05/14 05:01:44;;;;;;;16.57;12.33;;;12.80;99.90;;;;;;5039356;28;20210;-62
2023/05/14 05:04:11;;;;;;;18.03;11.90;;;12.90;99.90;;;;;;5037546;28;20536;-64
2023/05/14 05:06:38;;;;;;;18.40;11.53;;;12.90;99.90;;;;;;5038804;28;20207;-62
2023/05/14 05:09:07;;;;;;;13.27;11.50;;;12.80;99.90;;;;;;5039263;28;20241;-62
2023/05/14 05:11:34;;;;;;;14.13;11.77;;;12.70;99.90;;;;;;5038356;28;20215;-62
2023/05/14 05:14:01;;;;;;;17.77;12.63;;;12.70;99.90;;;;;;5035747;28;20227;-62
2023/05/14 05:16:28;;;;;;;15.77;12.40;;;12.80;99.90;;;;;;5037789;28;20204;-62
2023/05/14 05:18:54;;;;;;;17.70;12.13;;;12.80;99.90;;;;;;5042665;28;20298;-62
2023/05/14 05:21:22;;;;;;;15.30;12.47;;;12.60;99.90;;;;;;5033520;28;20297;-62
2023/05/14 05:23:49;;;;;;;16.37;11.40;;;12.70;99.90;;;;;;5036540;28;20605;-62
2023/05/14 05:26:16;;;;;;;13.83;11.43;;;13.00;99.90;;;;;;5030783;28;20274;-62
2023/05/14 05:28:43;;;;;;;14.80;11.37;;;12.90;99.90;;;;;;5034838;28;20207;-62
2023/05/14 05:31:09;;;;;;;16.10;12.37;;;12.70;99.90;;;;;;5030160;28;20640;-62
2023/05/14 05:33:36;;;;;;;15.67;12.23;;;12.90;99.90;;;;;;5035814;28;20329;-63
2023/05/14 05:36:04;;;;;;;17.77;12.80;;;13.00;99.90;;;;;;5032451;28;20235;-62
2023/05/14 05:38:31;;;;;;;18.17;11.73;;;13.00;99.90;;;;;;5036412;28;20228;-66
2023/05/14 05:40:58;;;;;;;16.17;12.10;;;13.00;99.90;;;;;;5037071;28;20206;-62
2023/05/14 05:43:25;;;;;;;17.47;11.30;;;13.10;99.90;;;;;;5035629;28;20215;-62
2023/05/14 05:45:51;;;;;;;17.47;11.50;;;13.20;99.90;;;;;;5040601;28;20223;-61
2023/05/14 05:48:18;;;;;;;18.67;11.53;;;13.20;99.90;;;;;;5035838;28;20214;-59
2023/05/14 05:50:49;;;;;;;15.97;12.57;;;13.00;99.90;;;;;;5033726;28;20295;-59
2023/05/14 05:53:15;;;;;;;16.43;11.90;;;13.30;99.90;;;;;;5028521;28;20285;-59
2023/05/14 05:55:42;;;;;;;18.00;11.03;;;13.30;99.90;;;;;;5028118;28;20719;-59
2023/05/14 05:58:09;;;;;;;14.73;11.67;;;13.10;99.90;;;;;;5031806;28;20211;-59
2023/05/14 06:00:36;;;;;;;15.73;13.60;;;13.10;99.90;;;;;;5021966;28;20234;-59
2023/05/14 06:03:03;;;;;;;17.13;12.10;;;13.10;99.90;;;;;;5030975;28;20297;-59
2023/05/14 06:05:30;;;;;;;13.30;11.23;;;13.30;99.90;;;;;;5028829;28;20201;-59
2023/05/14 06:07:57;;;;;;;18.13;11.90;;;13.50;99.90;;;;;;5034938;28;20235;-61
2023/05/14 06:10:24;;;;;;;16.13;11.93;;;13.40;99.90;;;;;;5036170;28;20269;-58
2023/05/14 06:12:51;;;;;;;18.97;12.40;;;13.40;99.90;;;;;;5036193;28;20209;-60
2023/05/14 06:15:18;;;;;;;15.57;11.50;;;13.50;99.90;;;;;;5034614;28;21332;-58
2023/05/14 06:17:45;;;;;;;15.10;11.13;;;13.60;99.90;;;;;;5032998;28;20347;-58
2023/05/14 06:20:12;;;;;;;14.80;11.57;;;13.70;99.90;;;;;;5035992;28;20540;-60
2023/05/14 06:22:39;;;;;;;16.40;10.53;;;13.40;99.90;;;;;;5036431;28;20648;-60
2023/05/14 06:25:06;;;;;;;15.73;11.87;;;13.40;99.90;;;;;;5039294;28;21512;-59
2023/05/14 06:27:33;;;;;;;17.97;12.23;;;13.50;99.90;;;;;;5035110;28;20237;-59
2023/05/14 06:30:00;;;;;;;15.80;11.90;;;13.60;99.90;;;;;;5036336;28;20294;-59
2023/05/14 06:32:27;;;;;;;19.03;11.70;;;13.60;99.90;;;;;;5036145;28;20332;-63
2023/05/14 06:34:53;;;;;;;14.53;11.20;;;13.80;99.90;;;;;;5035195;28;20665;-59
2023/05/14 06:37:20;;;;;;;17.77;12.17;;;13.60;99.90;;;;;;5031798;28;20206;-59
2023/05/14 06:39:49;;;;;;;12.93;10.77;;;14.00;99.90;;;;;;5021063;28;20208;-58
2023/05/14 06:42:16;;;;;;;15.43;11.50;;;14.10;99.90;;;;;;5038611;28;20660;-60
2023/05/14 06:44:44;;;;;;;13.67;10.70;;;14.30;99.90;;;;;;5037930;28;20749;-60
2023/05/14 06:47:11;;;;;;;15.97;11.13;;;14.50;99.90;;;;;;5035959;28;20289;-60
2023/05/14 06:49:38;;;;;;;17.50;11.57;;;14.40;99.90;;;;;;5038102;28;20206;-60
2023/05/14 06:52:05;;;;;;;15.03;10.40;;;14.40;99.90;;;;;;5042403;28;20283;-60
2023/05/14 06:54:32;;;;;;;18.90;11.60;;;14.50;99.90;;;;;;5043145;28;20260;-60
2023/05/14 06:56:59;;;;;;;16.23;11.03;;;14.30;99.90;;;;;;5050145;28;20246;-60
2023/05/14 06:59:26;;;;;;;14.00;10.67;;;14.50;99.90;;;;;;5048937;28;20601;-60
2023/05/14 07:01:53;;;;;;;13.47;10.83;;;14.70;99.90;;;;;;5047017;28;20197;-58
2023/05/14 07:04:20;;;;;;;14.00;10.60;;;14.80;99.90;;;;;;5041604;28;20336;-61
2023/05/14 07:06:47;;;;;;;17.40;11.43;;;15.00;99.90;;;;;;5040269;28;20216;-59
2023/05/14 07:09:15;;;;;;;14.97;10.93;;;15.00;99.90;;;;;;5042313;28;20204;-59
2023/05/14 07:11:42;;;;;;;12.80;10.77;;;14.70;99.90;;;;;;5042105;28;20202;-60
2023/05/14 07:14:09;;;;;;;14.63;11.90;;;14.60;99.90;;;;;;5040370;28;20254;-59
2023/05/14 07:16:36;;;;;;;16.37;10.63;;;14.90;99.90;;;;;;5042591;28;20209;-62
2023/05/14 07:19:03;;;;;;;13.93;11.57;;;14.90;99.90;;;;;;5039137;28;20285;-61
2023/05/14 07:21:31;;;;;;;12.43;10.63;;;14.70;99.90;;;;;;5038855;28;20599;-59
2023/05/14 07:23:58;;;;;;;13.20;11.13;;;14.90;99.90;;;;;;5035948;28;20750;-59
2023/05/14 07:26:25;;;;;;;15.53;10.73;;;14.90;99.90;;;;;;5022440;28;20226;-59
2023/05/14 07:28:52;;;;;;;14.10;10.70;;;15.10;99.90;;;;;;5037665;28;20257;-59
2023/05/14 07:31:19;;;;;;;16.97;11.17;;;14.90;99.90;;;;;;5040479;28;20671;-59
2023/05/14 07:33:46;;;;;;;12.97;9.50;;;15.30;99.90;;;;;;5014459;28;20230;-59
2023/05/14 07:36:13;;;;;;;12.83;10.10;;;15.50;99.90;;;;;;5032220;28;20231;-59
2023/05/14 07:38:40;;;;;;;12.23;9.90;;;15.30;99.90;;;;;;5033749;28;20197;-59
2023/05/14 07:41:07;;;;;;;13.00;10.20;;;15.50;99.90;;;;;;5035919;28;20209;-59
2023/05/14 07:43:33;;;;;;;14.20;10.37;;;15.90;99.90;;;;;;5033946;28;20347;-59
2023/05/14 07:46:00;;;;;;;16.57;10.37;;;16.00;99.90;;;;;;5036705;28;20479;-60
2023/05/14 07:48:27;;;;;;;14.57;9.63;;;15.90;99.90;;;;;;5036045;28;20446;-59
2023/05/14 07:50:54;;;;;;;16.67;9.97;;;16.10;99.90;;;;;;5033345;28;20678;-63
2023/05/14 07:53:22;;;;;;;14.40;10.33;;;16.70;99.90;;;;;;5035694;28;20901;-63
2023/05/14 07:55:49;;;;;;;12.97;10.07;;;17.10;99.90;;;;;;5031010;28;20196;-63
2023/05/14 07:58:16;;;;;;;11.23;9.53;;;17.10;99.90;;;;;;5033405;28;20568;-63
2023/05/14 08:00:43;;;;;;;10.93;9.47;;;17.20;99.90;;;;;;5035780;28;20746;-65
2023/05/14 08:03:10;;;;;;;11.73;8.73;;;17.40;99.90;;;;;;5031805;28;20268;-62
2023/05/14 08:05:37;;;;;;;12.83;9.67;;;17.70;99.90;;;;;;5034085;28;20202;-62
2023/05/14 08:08:03;;;;;;;11.77;8.67;;;17.50;99.90;;;;;;5029920;28;20698;-62
2023/05/14 08:10:30;;;;;;;9.93;8.50;;;17.30;99.90;;;;;;5040232;28;20203;-62
2023/05/14 08:12:57;;;;;;;12.10;8.80;;;17.40;99.90;;;;;;5039068;28;20559;-62
2023/05/14 08:15:24;;;;;;;12.30;10.50;;;17.30;99.90;;;;;;5037667;28;20222;-65
2023/05/14 08:17:53;;;;;;;10.40;8.57;;;17.30;99.90;;;;;;5040455;28;20634;-62
2023/05/14 08:20:21;;;;;;;9.93;8.87;;;17.50;99.90;;;;;;5035000;28;20211;-62
2023/05/14 08:22:48;;;;;;;10.83;8.50;;;17.50;99.90;;;;;;5037045;28;20288;-62
2023/05/14 08:25:15;;;;;;;12.23;8.17;;;17.80;99.90;;;;;;5038131;28;20313;-62
2023/05/14 08:27:42;;;;;;;9.50;8.20;;;18.10;99.90;;;;;;5034350;28;20202;-62
2023/05/14 08:30:09;;;;;;;9.50;7.93;;;18.10;99.90;;;;;;5035715;28;20196;-62
2023/05/14 08:32:37;;;;;;;11.07;8.50;;;18.20;99.90;;;;;;5038101;28;20230;-62
2023/05/14 08:35:04;;;;;;;10.27;8.83;;;18.10;99.90;;;;;;5037741;28;20226;-61
2023/05/14 08:37:31;;;;;;;11.00;8.83;;;18.20;99.90;;;;;;5036160;28;20342;-63
2023/05/14 08:39:58;;;;;;;13.13;8.60;;;18.10;99.90;;;;;;4680011;28;10000585;-61
2023/05/14 08:42:27;;;;;;;11.30;8.60;;;18.30;99.90;;;;;;5019478;28;20428;-62
2023/05/14 08:45:03;;;;;;;11.63;8.80;;;18.20;99.90;;;;;;5032715;28;20310;-62
2023/05/14 08:47:30;;;;;;;11.63;8.23;;;18.30;99.90;;;;;;5043511;28;20192;-62
2023/05/14 08:50:03;;;;;;;10.73;8.23;;;18.70;99.90;;;;;;5039261;28;20213;-62
2023/05/14 08:52:31;;;;;;;10.17;7.87;;;19.10;99.90;;;;;;5040612;28;20193;-63
2023/05/14 08:55:04;;;;;;;10.03;8.77;;;19.20;99.90;;;;;;5036911;28;20640;-62
2023/05/14 08:57:33;;;;;;;9.77;8.43;;;18.80;99.90;;;;;;5035248;28;20204;-66
2023/05/14 09:00:01;;;;;;;8.27;7.50;;;19.10;99.90;;;;;;5040327;28;20264;-62
2023/05/14 09:02:30;;;;;;;13.77;8.57;;;18.80;99.90;;;;;;5042802;28;20292;-63
2023/05/14 09:04:58;;;;;;;12.70;8.57;;;18.80;99.90;;;;;;5038696;28;20212;-63
2023/05/14 09:07:26;;;;;;;10.80;8.50;;;19.00;99.90;;;;;;5042912;28;20590;-63
2023/05/14 09:09:53;;;;;;;13.27;7.57;;;18.90;99.90;;;;;;5044188;28;20864;-63
2023/05/14 09:12:21;;;;;;;9.93;7.73;;;19.00;99.90;;;;;;5034146;28;20232;-63
2023/05/14 09:14:49;;;;;;;9.60;7.37;;;19.20;99.90;;;;;;5038191;28;20207;-62
2023/05/14 09:17:17;;;;;;;9.73;8.40;;;19.20;99.90;;;;;;5043869;28;20262;-61
2023/05/14 09:19:51;;;;;;;9.90;8.17;;;19.50;99.90;;;;;;5053142;28;20216;-64
2023/05/14 09:22:19;;;;;;;12.00;9.00;;;19.70;99.90;;;;;;5041947;28;20211;-64
2023/05/14 09:25:01;;;;;;;13.63;8.40;;;19.80;99.90;;;;;;5035952;28;20231;-62
2023/05/14 09:27:30;;;;;;;11.10;9.20;;;19.70;99.90;;;;;;5036575;28;20227;-61
2023/05/14 09:30:12;;;;;;;11.03;9.80;;;19.70;99.90;;;;;;5037063;28;20294;-62
2023/05/14 09:32:42;;;;;;;10.60;9.50;;;19.70;99.90;;;;;;5034026;28;20220;-61
2023/05/14 09:35:19;;;;;;;10.53;8.83;;;19.80;99.90;;;;;;5038037;28;20200;-61
2023/05/14 09:37:48;;;;;;;10.30;8.57;;;19.90;99.90;;;;;;5033355;28;20199;-61
2023/05/14 09:40:16;;;;;;;12.60;10.30;;;20.20;99.90;;;;;;5038784;28;20236;-62
2023/05/14 09:42:44;;;;;;;11.67;9.20;;;20.10;99.90;;;;;;5037126;28;20204;-61
2023/05/14 09:45:11;;;;;;;12.40;9.93;;;19.90;99.90;;;;;;5041067;28;20715;-62
2023/05/14 09:47:39;;;;;;;10.10;8.97;;;20.00;99.90;;;;;;5042534;28;21159;-62
2023/05/14 09:50:07;;;;;;;10.67;8.93;;;20.10;99.90;;;;;;5041333;28;20196;-62
2023/05/14 09:52:34;;;;;;;12.23;9.60;;;20.30;99.90;;;;;;5043466;28;20564;-62
2023/05/14 09:55:01;;;;;;;11.17;9.40;;;20.20;99.90;;;;;;5044580;28;20216;-62
2023/05/14 09:57:28;;;;;;;12.87;9.33;;;19.90;99.90;;;;;;5030290;28;20208;-62
2023/05/14 09:59:55;;;;;;;11.13;8.93;;;20.10;99.90;;;;;;5027960;28;20208;-62
2023/05/14 10:02:42;;;;;;;11.03;9.03;;;20.40;99.90;;;;;;5039419;28;20204;-62
2023/05/14 10:05:11;;;;;;;10.90;8.93;;;20.50;99.90;;;;;;5033713;28;20216;-62
2023/05/14 10:07:45;;;;;;;12.50;9.17;;;20.60;99.90;;;;;;5034644;28;20235;-62
2023/05/14 10:10:15;;;;;;;9.43;8.43;;;20.60;99.90;;;;;;5041143;28;20243;-62
2023/05/14 10:12:51;;;;;;;9.53;8.53;;;20.60;99.90;;;;;;5031973;28;20227;-62
2023/05/14 10:15:48;;;;;;;9.57;8.57;;;20.20;99.90;;;;;;5038170;28;20212;-62
2023/05/14 10:18:24;;;;;;;11.83;8.77;;;20.30;99.90;;;;;;5039403;28;20219;-62
2023/05/14 10:21:02;;;;;;;11.47;8.40;;;19.90;99.90;;;;;;5034407;28;20214;-64
2023/05/14 10:23:29;;;;;;;9.90;8.90;;;19.90;99.90;;;;;;5031898;28;20577;-61
2023/05/14 10:26:00;;;;;;;9.67;8.10;;;20.20;99.90;;;;;;5033472;28;20638;-62
2023/05/14 10:28:27;;;;;;;10.90;8.47;;;20.10;99.90;;;;;;5037667;28;20235;-62
2023/05/14 10:30:54;;;;;;;12.30;8.07;;;20.00;99.90;;;;;;5034980;28;20254;-63
2023/05/14 10:33:21;;;;;;;10.87;7.83;;;20.00;99.90;;;;;;5034873;28;20224;-62
2023/05/14 10:35:54;;;;;;;10.83;8.10;;;20.10;99.90;;;;;;5039337;28;20200;-61
2023/05/14 10:38:33;;;;;;;11.40;8.30;;;20.50;99.90;;;;;;5042875;28;20299;-67
2023/05/14 10:41:04;;;;;;;12.10;8.73;;;20.50;99.90;;;;;;5033946;28;20355;-62
2023/05/14 10:43:37;;;;;;;7.70;6.63;;;20.80;99.90;;;;;;5033054;28;20200;-63
2023/05/14 10:46:05;;;;;;;10.70;7.80;;;20.80;99.90;;;;;;5027838;28;21138;-62
2023/05/14 10:48:32;;;;;;;8.80;7.57;;;20.70;99.90;;;;;;5033354;28;20318;-63
2023/05/14 10:51:01;;;;;;;12.73;7.80;;;20.70;99.90;;;;;;5041806;28;20192;-63
2023/05/14 10:53:33;;;;;;;11.13;7.97;;;20.60;99.90;;;;;;5044180;28;20271;-62
2023/05/14 10:56:09;;;;;;;14.00;7.77;;;21.00;99.90;;;;;;5038537;28;20808;-62
2023/05/14 10:58:37;;;;;;;9.03;6.97;;;21.10;99.90;;;;;;5040322;28;20226;-62
2023/05/14 11:01:09;;;;;;;8.67;7.73;;;21.40;99.90;;;;;;5040338;28;20697;-62
2023/05/14 11:03:41;;;;;;;9.53;8.03;;;21.60;99.90;;;;;;5043820;28;20303;-63
2023/05/14 11:06:09;;;;;;;9.67;7.70;;;21.60;99.90;;;;;;5043243;28;20367;-63
2023/05/14 11:08:37;;;;;;;9.17;7.70;;;21.50;99.90;;;;;;5042145;28;20289;-62
2023/05/14 11:11:04;;;;;;;7.97;6.97;;;21.80;99.90;;;;;;5039281;28;20230;-63
2023/05/14 11:13:33;;;;;;;9.43;7.40;;;21.70;99.90;;;;;;5046331;28;20208;-62
2023/05/14 11:16:01;;;;;;;9.23;6.77;;;22.10;99.90;;;;;;5048078;28;20545;-63
2023/05/14 11:18:47;;;;;;;7.50;6.80;;;22.00;99.90;;;;;;5041185;28;20290;-61
2023/05/14 11:21:16;;;;;;;8.93;6.70;;;21.70;99.90;;;;;;5048400;28;20204;-62
2023/05/14 11:23:45;;;;;;;8.13;7.33;;;22.20;99.90;;;;;;5046006;28;20240;-62
2023/05/14 11:26:12;;;;;;;7.80;7.07;;;22.70;99.90;;;;;;5040825;28;20624;-60
2023/05/14 11:28:39;;;;;;;9.57;6.00;;;22.80;99.90;;;;;;5042631;28;20246;-61
2023/05/14 11:31:06;;;;;;;6.57;5.97;;;22.80;99.90;;;;;;5043464;28;20215;-60
2023/05/14 11:33:34;;;;;;;6.00;5.40;;;23.00;99.90;;;;;;5046584;28;20314;-61
2023/05/14 11:36:01;;;;;;;7.40;5.40;;;23.20;99.90;;;;;;5059962;28;20200;-63
2023/05/14 11:38:29;;;;;;;9.20;6.03;;;23.40;99.90;;;;;;5043740;28;20213;-60
2023/05/14 11:40:58;;;;;;;6.50;4.80;;;23.20;99.90;;;;;;5037446;28;20614;-63
2023/05/14 11:43:27;;;;;;;6.80;5.30;;;23.30;99.90;;;;;;5032182;28;20208;-60
2023/05/14 11:45:55;;;;;;;6.23;5.63;;;23.30;99.90;;;;;;5040753;28;20573;-60
2023/05/14 11:48:23;;;;;;;8.23;5.10;;;23.50;99.90;;;;;;5039844;28;20271;-61
2023/05/14 11:50:51;;;;;;;6.13;5.53;;;23.80;99.90;;;;;;5047932;28;20988;-64
2023/05/14 11:53:19;;;;;;;8.67;5.50;;;23.70;99.90;;;;;;5029629;28;20634;-60
2023/05/14 11:55:47;;;;;;;6.23;5.63;;;24.00;99.90;;;;;;5042842;28;20210;-63
2023/05/14 11:58:15;;;;;;;9.90;5.63;;;23.80;99.90;;;;;;5043377;28;20202;-61
2023/05/14 12:00:44;;;;;;;6.20;5.60;;;24.10;99.90;;;;;;5028264;28;20224;-61
2023/05/14 12:03:11;;;;;;;6.33;5.73;;;24.30;99.90;;;;;;5042835;28;20199;-60
2023/05/14 12:05:39;;;;;;;10.47;5.67;;;24.00;99.90;;;;;;5043063;28;20219;-60
2023/05/14 12:08:25;;;;;;;6.60;6.00;;;23.30;99.90;;;;;;5031533;28;20254;-64
2023/05/14 12:10:53;;;;;;;5.93;5.33;;;22.80;99.90;;;;;;5041146;28;20204;-62
2023/05/14 12:13:20;;;;;;;7.30;5.70;;;23.50;99.90;;;;;;5041329;28;20239;-61
2023/05/14 12:15:54;;;;;;;6.90;4.70;;;23.70;99.90;;;;;;5042759;28;20809;-60
2023/05/14 12:18:21;;;;;;;10.17;5.60;;;23.80;99.90;;;;;;5033501;28;20696;-60
2023/05/14 12:20:51;;;;;;;11.33;6.80;;;23.30;99.90;;;;;;5026709;28;20560;-60
2023/05/14 12:23:25;;;;;;;10.20;6.03;;;23.50;99.90;;;;;;5033602;28;20231;-60
2023/05/14 12:25:52;;;;;;;6.77;6.13;;;23.60;99.90;;;;;;5025198;28;20730;-60
2023/05/14 12:28:21;;;;;;;7.30;6.17;;;23.70;99.90;;;;;;5014111;28;20275;-61
2023/05/14 12:30:55;;;;;;;6.83;5.30;;;24.00;99.90;;;;;;5040494;28;20214;-60
2023/05/14 12:33:25;;;;;;;7.20;5.83;;;24.20;99.90;;;;;;5033900;28;20230;-61
2023/05/14 12:35:53;;;;;;;6.23;5.40;;;23.60;99.90;;;;;;5050467;28;20210;-60
2023/05/14 12:38:20;;;;;;;8.03;5.53;;;23.20;99.90;;;;;;5031247;28;20644;-64